Alsip, IL

9:46 PM CST on February 13, 2016 (GMT -0600)
151st & Central Ave. | Change Station
CLOSE
Current Station
Personal Weather Station
Location: Oak Forest, IL
Elevation: 645 ft
Nearby Weather Stations

Elev 645 ft 41.62 °N, 87.76 °W | Updated 6 seconds ago

Partly Cloudy
Partly Cloudy
11.8 °F
Feels Like 12 °F
N
0.0
Wind Variable Wind from SE
Gusts 0.0 mph

Today
High -- | Low -- °F
--% Chance of Precip.
Yesterday
High -- | Low -- °F
Precip. -- in
6:49 AM 5:21 PM
Waxing Crescent, 37% visible
Pressure 30.56 in
Visibility 10.0 miles
Clouds Scattered Clouds 20000 ft
Scattered Clouds 24000 ft
Windchill 12 °F
Dew Point -2 °F
Humidity 54%
Rainfall 0.00 in
Snow Depth Not available.
UV 0 out of 12
Pollen .10 out of 12
Ozone Good
PM2.5 Good
Flu Activity Local Activity
METAR KMDW 140253Z 30003KT 10SM SCT200 SCT240 M09/M21 A3049 RMK AO2 SLP346 T10941206 58007

More Conditions Fewer Conditions

Pressure 30.56 in
Visibility 10.0 miles
Clouds Scattered Clouds 20000 ft
Scattered Clouds 24000 ft
Windchill 12 °F
Dew Point -2 °F
Humidity 54%
Rainfall 0.00 in
Snow Depth Not available.
UV 0 out of 12
Pollen .10 out of 12
Ozone Good
PM2.5 Good
Flu Activity Local Activity
METAR KMDW 140253Z 30003KT 10SM SCT200 SCT240 M09/M21 A3049 RMK AO2 SLP346 T10941206 58007

More Conditions Fewer Conditions

10-Day Weather Forecast

Almanac

Astronomy

Feb. 13, 2016 Rise Set
Actual Time 6:49 AM CST 5:21 PM CST
Civil Twilight 6:20 AM CST 5:49 PM CST
Nautical Twilight 5:48 AM CST 6:22 PM CST
Astronomical Twilight 5:16 AM CST 6:54 PM CST
Moon 9:52 AM CST (2/13) 11:33 PM CST (2/13)
Length of Visible Light 11h 29m
Length of Day
10h 31m
Tomorrow will be 2m 34s longer.
Waxing Crescent, 37% of the Moon is Illuminated
Today
Waxing Crescent
Feb 15
First Quarter
Feb 22
Full
Mar 1
Last Quarter
Mar 8
New

Today's Extremes

State Highs State Lows

Community

WunderPhotos

Upload Photos

1,892,738 photos uploaded!

Nearby

Air Quality

  Air Quality AQ Index Pollutant
Yesterday Good
OZONE
Yesterday Good
PM2.5
Current Good
PM2.5
Current Good
OZONE
Saturday Good
PM2.5
Sunday Moderate
PM2.5
Monday Good
PM2.5
Tuesday Good
PM2.5

Snow Depth

Station Depth Elevation
No new snow has been reported.

Earthquake Activity

City Distance Mag. Time & Date
No recent earthquake activity has been reported nearby.
Minimum magnitude displayed is 2.5.

Coastal Water Temperatures

Place Temperature
No Stations Reporting

Nearby Weather Stations